sensor_id;sensor_type;location;lat;lon;timestamp;temperature;humidity
78541;SHT31;67835;51.968;5.646;2023-09-19T00:00:43;18.0;67.3
78541;SHT31;67835;51.968;5.646;2023-09-19T00:03:15;18.0;67.6
78541;SHT31;67835;51.968;5.646;2023-09-19T00:05:45;18.0;67.6
78541;SHT31;67835;51.968;5.646;2023-09-19T00:08:15;18.0;67.6
78541;SHT31;67835;51.968;5.646;2023-09-19T00:10:43;18.0;67.9
78541;SHT31;67835;51.968;5.646;2023-09-19T00:13:12;18.0;68.0
78541;SHT31;67835;51.968;5.646;2023-09-19T00:15:43;18.0;68.3
78541;SHT31;67835;51.968;5.646;2023-09-19T00:18:15;18.0;68.2
78541;SHT31;67835;51.968;5.646;2023-09-19T00:20:45;18.0;68.4
78541;SHT31;67835;51.968;5.646;2023-09-19T00:23:17;18.0;68.4
78541;SHT31;67835;51.968;5.646;2023-09-19T00:25:47;18.0;68.5
78541;SHT31;67835;51.968;5.646;2023-09-19T00:28:17;18.0;68.7
78541;SHT31;67835;51.968;5.646;2023-09-19T00:30:48;18.0;68.7
78541;SHT31;67835;51.968;5.646;2023-09-19T00:33:18;18.0;68.7
78541;SHT31;67835;51.968;5.646;2023-09-19T00:35:51;18.0;68.9
78541;SHT31;67835;51.968;5.646;2023-09-19T00:38:21;18.0;69.0
78541;SHT31;67835;51.968;5.646;2023-09-19T00:40:54;18.0;69.2
78541;SHT31;67835;51.968;5.646;2023-09-19T00:43:23;18.0;69.5
78541;SHT31;67835;51.968;5.646;2023-09-19T00:45:55;18.0;69.7
78541;SHT31;67835;51.968;5.646;2023-09-19T00:48:26;18.0;69.9
78541;SHT31;67835;51.968;5.646;2023-09-19T00:50:58;18.0;69.9
78541;SHT31;67835;51.968;5.646;2023-09-19T00:53:33;18.0;70.1
78541;SHT31;67835;51.968;5.646;2023-09-19T00:56:03;18.0;70.0
78541;SHT31;67835;51.968;5.646;2023-09-19T00:58:34;18.0;70.1
78541;SHT31;67835;51.968;5.646;2023-09-19T01:01:06;18.0;70.4
78541;SHT31;67835;51.968;5.646;2023-09-19T01:03:38;18.0;70.3
78541;SHT31;67835;51.968;5.646;2023-09-19T01:06:08;18.0;70.4
78541;SHT31;67835;51.968;5.646;2023-09-19T01:08:37;18.0;70.2
78541;SHT31;67835;51.968;5.646;2023-09-19T01:11:14;18.0;70.2
78541;SHT31;67835;51.968;5.646;2023-09-19T01:13:57;17.9;70.0
78541;SHT31;67835;51.968;5.646;2023-09-19T01:16:39;17.9;70.1
78541;SHT31;67835;51.968;5.646;2023-09-19T01:19:41;17.9;70.1
78541;SHT31;67835;51.968;5.646;2023-09-19T01:22:18;17.9;69.8
78541;SHT31;67835;51.968;5.646;2023-09-19T01:25:20;17.9;69.4
78541;SHT31;67835;51.968;5.646;2023-09-19T01:28:20;17.9;68.5
78541;SHT31;67835;51.968;5.646;2023-09-19T01:30:54;17.9;68.0
78541;SHT31;67835;51.968;5.646;2023-09-19T01:33:28;17.9;67.9
78541;SHT31;67835;51.968;5.646;2023-09-19T01:36:00;17.9;67.6
78541;SHT31;67835;51.968;5.646;2023-09-19T01:38:30;18.0;66.9
78541;SHT31;67835;51.968;5.646;2023-09-19T01:41:07;18.0;66.3
78541;SHT31;67835;51.968;5.646;2023-09-19T01:43:45;18.0;65.9
78541;SHT31;67835;51.968;5.646;2023-09-19T01:46:23;18.0;65.5
78541;SHT31;67835;51.968;5.646;2023-09-19T01:49:01;18.0;65.0
78541;SHT31;67835;51.968;5.646;2023-09-19T01:51:37;18.0;64.8
78541;SHT31;67835;51.968;5.646;2023-09-19T01:54:12;18.0;64.5
78541;SHT31;67835;51.968;5.646;2023-09-19T01:56:50;18.0;64.6
78541;SHT31;67835;51.968;5.646;2023-09-19T01:59:24;18.0;64.8
78541;SHT31;67835;51.968;5.646;2023-09-19T02:01:55;17.9;64.8
78541;SHT31;67835;51.968;5.646;2023-09-19T02:04:24;17.9;64.9
78541;SHT31;67835;51.968;5.646;2023-09-19T02:06:53;17.8;65.0
78541;SHT31;67835;51.968;5.646;2023-09-19T02:09:22;17.8;64.7
78541;SHT31;67835;51.968;5.646;2023-09-19T02:11:51;17.7;64.8
78541;SHT31;67835;51.968;5.646;2023-09-19T02:14:22;17.7;64.5
78541;SHT31;67835;51.968;5.646;2023-09-19T02:16:51;17.7;64.4
78541;SHT31;67835;51.968;5.646;2023-09-19T02:19:20;17.6;64.4
78541;SHT31;67835;51.968;5.646;2023-09-19T02:21:49;17.6;64.2
78541;SHT31;67835;51.968;5.646;2023-09-19T02:24:19;17.6;63.8
78541;SHT31;67835;51.968;5.646;2023-09-19T02:26:47;17.6;63.7
78541;SHT31;67835;51.968;5.646;2023-09-19T02:29:15;17.5;63.7
78541;SHT31;67835;51.968;5.646;2023-09-19T02:31:44;17.5;63.6
78541;SHT31;67835;51.968;5.646;2023-09-19T02:34:12;17.4;63.3
78541;SHT31;67835;51.968;5.646;2023-09-19T02:36:43;17.4;63.2
78541;SHT31;67835;51.968;5.646;2023-09-19T02:39:12;17.4;63.2
78541;SHT31;67835;51.968;5.646;2023-09-19T02:41:43;17.3;62.8
78541;SHT31;67835;51.968;5.646;2023-09-19T02:44:13;17.3;62.5
78541;SHT31;67835;51.968;5.646;2023-09-19T02:46:41;17.2;63.0
78541;SHT31;67835;51.968;5.646;2023-09-19T02:49:10;17.2;62.7
78541;SHT31;67835;51.968;5.646;2023-09-19T02:51:40;17.2;62.9
78541;SHT31;67835;51.968;5.646;2023-09-19T02:54:09;17.1;62.9
78541;SHT31;67835;51.968;5.646;2023-09-19T02:56:38;17.1;62.7
78541;SHT31;67835;51.968;5.646;2023-09-19T02:59:07;17.0;62.6
78541;SHT31;67835;51.968;5.646;2023-09-19T03:01:36;17.0;62.8
78541;SHT31;67835;51.968;5.646;2023-09-19T03:04:06;16.9;62.7
78541;SHT31;67835;51.968;5.646;2023-09-19T03:06:37;16.9;62.8
78541;SHT31;67835;51.968;5.646;2023-09-19T03:09:07;16.9;62.9
78541;SHT31;67835;51.968;5.646;2023-09-19T03:11:40;16.9;63.0
78541;SHT31;67835;51.968;5.646;2023-09-19T03:14:11;16.8;62.7
78541;SHT31;67835;51.968;5.646;2023-09-19T03:16:41;16.8;62.9
78541;SHT31;67835;51.968;5.646;2023-09-19T03:19:11;16.8;62.6
78541;SHT31;67835;51.968;5.646;2023-09-19T03:21:41;16.7;62.1
78541;SHT31;67835;51.968;5.646;2023-09-19T03:24:10;16.7;62.2
78541;SHT31;67835;51.968;5.646;2023-09-19T03:26:40;16.7;61.8
78541;SHT31;67835;51.968;5.646;2023-09-19T03:29:10;16.6;61.9
78541;SHT31;67835;51.968;5.646;2023-09-19T03:31:40;16.6;61.9
78541;SHT31;67835;51.968;5.646;2023-09-19T03:34:09;16.6;61.9
78541;SHT31;67835;51.968;5.646;2023-09-19T03:36:37;16.5;61.8
78541;SHT31;67835;51.968;5.646;2023-09-19T03:39:09;16.5;61.9
78541;SHT31;67835;51.968;5.646;2023-09-19T03:41:39;16.5;61.9
78541;SHT31;67835;51.968;5.646;2023-09-19T03:44:08;16.5;61.5
78541;SHT31;67835;51.968;5.646;2023-09-19T03:46:37;16.5;61.5
78541;SHT31;67835;51.968;5.646;2023-09-19T03:49:06;16.5;61.0
78541;SHT31;67835;51.968;5.646;2023-09-19T03:51:35;16.4;61.1
78541;SHT31;67835;51.968;5.646;2023-09-19T03:54:04;16.4;61.2
78541;SHT31;67835;51.968;5.646;2023-09-19T03:56:34;16.4;61.2
78541;SHT31;67835;51.968;5.646;2023-09-19T03:59:02;16.4;61.2
78541;SHT31;67835;51.968;5.646;2023-09-19T04:01:31;16.4;60.9
78541;SHT31;67835;51.968;5.646;2023-09-19T04:04:00;16.3;60.8
78541;SHT31;67835;51.968;5.646;2023-09-19T04:06:36;16.3;61.3
78541;SHT31;67835;51.968;5.646;2023-09-19T04:09:05;16.3;61.2
78541;SHT31;67835;51.968;5.646;2023-09-19T04:11:37;16.3;61.3
78541;SHT31;67835;51.968;5.646;2023-09-19T04:14:06;16.3;61.6
78541;SHT31;67835;51.968;5.646;2023-09-19T04:16:35;16.3;61.4
78541;SHT31;67835;51.968;5.646;2023-09-19T04:19:04;16.3;61.5
78541;SHT31;67835;51.968;5.646;2023-09-19T04:21:32;16.3;61.7
78541;SHT31;67835;51.968;5.646;2023-09-19T04:24:01;16.3;61.8
78541;SHT31;67835;51.968;5.646;2023-09-19T04:26:29;16.3;61.5
78541;SHT31;67835;51.968;5.646;2023-09-19T04:28:58;16.3;61.5
78541;SHT31;67835;51.968;5.646;2023-09-19T04:31:27;16.2;61.5
78541;SHT31;67835;51.968;5.646;2023-09-19T04:33:58;16.2;61.7
78541;SHT31;67835;51.968;5.646;2023-09-19T04:36:30;16.2;61.8
78541;SHT31;67835;51.968;5.646;2023-09-19T04:38:58;16.2;61.9
78541;SHT31;67835;51.968;5.646;2023-09-19T04:41:31;16.2;62.0
78541;SHT31;67835;51.968;5.646;2023-09-19T04:44:00;16.2;62.0
78541;SHT31;67835;51.968;5.646;2023-09-19T04:46:30;16.2;62.2
78541;SHT31;67835;51.968;5.646;2023-09-19T04:48:58;16.2;62.3
78541;SHT31;67835;51.968;5.646;2023-09-19T04:51:28;16.2;62.1
78541;SHT31;67835;51.968;5.646;2023-09-19T04:54:00;16.2;62.4
78541;SHT31;67835;51.968;5.646;2023-09-19T04:56:29;16.1;62.4
78541;SHT31;67835;51.968;5.646;2023-09-19T04:58:59;16.1;62.6
78541;SHT31;67835;51.968;5.646;2023-09-19T05:01:28;16.1;62.7
78541;SHT31;67835;51.968;5.646;2023-09-19T05:03:57;16.1;62.7
78541;SHT31;67835;51.968;5.646;2023-09-19T05:06:27;16.1;63.1
78541;SHT31;67835;51.968;5.646;2023-09-19T05:08:56;16.1;63.1
78541;SHT31;67835;51.968;5.646;2023-09-19T05:11:27;16.1;63.2
78541;SHT31;67835;51.968;5.646;2023-09-19T05:13:56;16.1;63.3
78541;SHT31;67835;51.968;5.646;2023-09-19T05:16:30;16.1;63.3
78541;SHT31;67835;51.968;5.646;2023-09-19T05:19:02;16.1;63.6
78541;SHT31;67835;51.968;5.646;2023-09-19T05:21:31;16.1;63.7
78541;SHT31;67835;51.968;5.646;2023-09-19T05:23:59;16.1;63.8
78541;SHT31;67835;51.968;5.646;2023-09-19T05:26:29;16.1;63.8
78541;SHT31;67835;51.968;5.646;2023-09-19T05:28:57;16.1;63.9
78541;SHT31;67835;51.968;5.646;2023-09-19T05:31:27;16.1;63.9
78541;SHT31;67835;51.968;5.646;2023-09-19T05:33:57;16.1;64.1
78541;SHT31;67835;51.968;5.646;2023-09-19T05:36:27;16.2;64.1
78541;SHT31;67835;51.968;5.646;2023-09-19T05:38:57;16.2;64.1
78541;SHT31;67835;51.968;5.646;2023-09-19T05:41:26;16.2;64.4
78541;SHT31;67835;51.968;5.646;2023-09-19T05:43:55;16.2;64.5
78541;SHT31;67835;51.968;5.646;2023-09-19T05:46:26;16.2;64.4
78541;SHT31;67835;51.968;5.646;2023-09-19T05:48:56;16.3;64.3
78541;SHT31;67835;51.968;5.646;2023-09-19T05:51:26;16.3;64.4
78541;SHT31;67835;51.968;5.646;2023-09-19T05:53:55;16.4;64.5
78541;SHT31;67835;51.968;5.646;2023-09-19T05:56:27;16.5;64.1
78541;SHT31;67835;51.968;5.646;2023-09-19T05:58:56;16.5;63.7
78541;SHT31;67835;51.968;5.646;2023-09-19T06:01:25;16.6;63.8
78541;SHT31;67835;51.968;5.646;2023-09-19T06:03:55;16.6;63.9
78541;SHT31;67835;51.968;5.646;2023-09-19T06:06:23;16.6;63.9
78541;SHT31;67835;51.968;5.646;2023-09-19T06:08:52;16.6;64.3
78541;SHT31;67835;51.968;5.646;2023-09-19T06:11:21;16.6;64.2
78541;SHT31;67835;51.968;5.646;2023-09-19T06:13:53;16.7;64.4
78541;SHT31;67835;51.968;5.646;2023-09-19T06:16:23;16.7;64.4
78541;SHT31;67835;51.968;5.646;2023-09-19T06:18:52;16.8;64.4
78541;SHT31;67835;51.968;5.646;2023-09-19T06:21:22;16.8;64.3
78541;SHT31;67835;51.968;5.646;2023-09-19T06:23:51;16.8;64.4
78541;SHT31;67835;51.968;5.646;2023-09-19T06:26:20;16.8;64.5
78541;SHT31;67835;51.968;5.646;2023-09-19T06:28:49;16.9;64.5
78541;SHT31;67835;51.968;5.646;2023-09-19T06:31:25;16.9;64.8
78541;SHT31;67835;51.968;5.646;2023-09-19T06:33:58;17.0;65.1
78541;SHT31;67835;51.968;5.646;2023-09-19T06:36:29;17.1;64.5
78541;SHT31;67835;51.968;5.646;2023-09-19T06:39:00;17.1;64.4
78541;SHT31;67835;51.968;5.646;2023-09-19T06:41:31;17.2;64.5
78541;SHT31;67835;51.968;5.646;2023-09-19T06:43:59;17.2;64.6
78541;SHT31;67835;51.968;5.646;2023-09-19T06:46:29;17.2;64.6
78541;SHT31;67835;51.968;5.646;2023-09-19T06:49:01;17.2;64.4
78541;SHT31;67835;51.968;5.646;2023-09-19T06:51:33;17.3;64.6
78541;SHT31;67835;51.968;5.646;2023-09-19T06:54:03;17.3;64.5
78541;SHT31;67835;51.968;5.646;2023-09-19T06:56:32;17.4;64.4
78541;SHT31;67835;51.968;5.646;2023-09-19T06:59:01;17.4;64.3
78541;SHT31;67835;51.968;5.646;2023-09-19T07:01:32;17.5;64.5
78541;SHT31;67835;51.968;5.646;2023-09-19T07:04:03;17.5;64.5
78541;SHT31;67835;51.968;5.646;2023-09-19T07:06:32;17.6;64.2
78541;SHT31;67835;51.968;5.646;2023-09-19T07:09:01;17.6;63.9
78541;SHT31;67835;51.968;5.646;2023-09-19T07:11:32;17.7;63.9
78541;SHT31;67835;51.968;5.646;2023-09-19T07:14:01;17.8;63.7
78541;SHT31;67835;51.968;5.646;2023-09-19T07:16:30;17.9;63.8
78541;SHT31;67835;51.968;5.646;2023-09-19T07:18:58;18.0;63.5
78541;SHT31;67835;51.968;5.646;2023-09-19T07:21:28;18.1;63.2
78541;SHT31;67835;51.968;5.646;2023-09-19T07:23:57;18.3;62.5
78541;SHT31;67835;51.968;5.646;2023-09-19T07:26:29;18.4;61.3
78541;SHT31;67835;51.968;5.646;2023-09-19T07:28:57;18.6;61.3
78541;SHT31;67835;51.968;5.646;2023-09-19T07:31:29;18.8;60.7
78541;SHT31;67835;51.968;5.646;2023-09-19T07:34:00;19.0;60.3
78541;SHT31;67835;51.968;5.646;2023-09-19T07:36:30;19.1;59.8
78541;SHT31;67835;51.968;5.646;2023-09-19T07:38:59;19.3;59.2
78541;SHT31;67835;51.968;5.646;2023-09-19T07:41:27;19.4;58.7
78541;SHT31;67835;51.968;5.646;2023-09-19T07:43:57;19.5;58.4
78541;SHT31;67835;51.968;5.646;2023-09-19T07:46:26;19.6;58.3
78541;SHT31;67835;51.968;5.646;2023-09-19T07:48:57;19.7;57.5
78541;SHT31;67835;51.968;5.646;2023-09-19T07:51:27;19.8;57.5
78541;SHT31;67835;51.968;5.646;2023-09-19T07:53:56;19.9;56.9
78541;SHT31;67835;51.968;5.646;2023-09-19T07:56:25;20.1;56.8
78541;SHT31;67835;51.968;5.646;2023-09-19T07:58:54;20.2;56.9
78541;SHT31;67835;51.968;5.646;2023-09-19T08:01:25;20.4;56.0
78541;SHT31;67835;51.968;5.646;2023-09-19T08:03:54;20.5;55.7
78541;SHT31;67835;51.968;5.646;2023-09-19T08:06:23;20.7;55.6
78541;SHT31;67835;51.968;5.646;2023-09-19T08:08:53;20.8;54.8
78541;SHT31;67835;51.968;5.646;2023-09-19T08:11:23;21.0;54.1
78541;SHT31;67835;51.968;5.646;2023-09-19T08:13:52;21.1;54.3
78541;SHT31;67835;51.968;5.646;2023-09-19T08:16:21;21.2;53.9
78541;SHT31;67835;51.968;5.646;2023-09-19T08:18:51;21.4;54.1
78541;SHT31;67835;51.968;5.646;2023-09-19T08:21:22;21.5;53.8
78541;SHT31;67835;51.968;5.646;2023-09-19T08:23:56;21.7;52.8
78541;SHT31;67835;51.968;5.646;2023-09-19T08:26:25;21.9;52.4
78541;SHT31;67835;51.968;5.646;2023-09-19T08:28:53;22.0;52.2
78541;SHT31;67835;51.968;5.646;2023-09-19T08:31:25;22.1;52.1
78541;SHT31;67835;51.968;5.646;2023-09-19T08:33:57;22.2;52.5
78541;SHT31;67835;51.968;5.646;2023-09-19T08:36:26;22.3;51.9
78541;SHT31;67835;51.968;5.646;2023-09-19T08:38:54;22.5;51.6
78541;SHT31;67835;51.968;5.646;2023-09-19T08:41:23;22.7;52.1
78541;SHT31;67835;51.968;5.646;2023-09-19T08:43:51;22.9;49.9
78541;SHT31;67835;51.968;5.646;2023-09-19T08:46:27;23.0;49.9
78541;SHT31;67835;51.968;5.646;2023-09-19T08:49:04;23.1;49.0
78541;SHT31;67835;51.968;5.646;2023-09-19T08:51:43;23.1;49.2
78541;SHT31;67835;51.968;5.646;2023-09-19T08:54:21;23.2;49.4
78541;SHT31;67835;51.968;5.646;2023-09-19T08:56:54;23.3;49.3
78541;SHT31;67835;51.968;5.646;2023-09-19T08:59:24;23.3;48.7
78541;SHT31;67835;51.968;5.646;2023-09-19T09:01:56;23.4;49.0
78541;SHT31;67835;51.968;5.646;2023-09-19T09:04:27;23.5;49.0
78541;SHT31;67835;51.968;5.646;2023-09-19T09:06:57;23.6;47.8
78541;SHT31;67835;51.968;5.646;2023-09-19T09:09:28;23.7;46.9
78541;SHT31;67835;51.968;5.646;2023-09-19T09:11:58;23.8;47.3
78541;SHT31;67835;51.968;5.646;2023-09-19T09:14:29;24.0;47.1
78541;SHT31;67835;51.968;5.646;2023-09-19T09:17:00;24.2;45.5
78541;SHT31;67835;51.968;5.646;2023-09-19T09:19:30;24.3;44.8
78541;SHT31;67835;51.968;5.646;2023-09-19T09:22:08;24.4;45.3
78541;SHT31;67835;51.968;5.646;2023-09-19T09:24:50;24.4;43.7
78541;SHT31;67835;51.968;5.646;2023-09-19T09:27:13;24.4;44.1
78541;SHT31;67835;51.968;5.646;2023-09-19T09:29:46;24.4;44.6
78541;SHT31;67835;51.968;5.646;2023-09-19T09:32:24;24.5;45.1
78541;SHT31;67835;51.968;5.646;2023-09-19T09:34:56;24.5;45.1
78541;SHT31;67835;51.968;5.646;2023-09-19T09:37:27;24.7;45.1
78541;SHT31;67835;51.968;5.646;2023-09-19T09:39:59;24.9;42.8
78541;SHT31;67835;51.968;5.646;2023-09-19T09:42:36;25.0;43.5
78541;SHT31;67835;51.968;5.646;2023-09-19T09:45:16;25.2;43.5
78541;SHT31;67835;51.968;5.646;2023-09-19T09:47:47;25.4;42.2
78541;SHT31;67835;51.968;5.646;2023-09-19T09:50:27;25.5;42.3
78541;SHT31;67835;51.968;5.646;2023-09-19T09:53:22;25.7;42.1
78541;SHT31;67835;51.968;5.646;2023-09-19T09:56:06;25.9;42.7
78541;SHT31;67835;51.968;5.646;2023-09-19T09:58:38;26.1;41.9
78541;SHT31;67835;51.968;5.646;2023-09-19T10:01:16;26.2;41.6
78541;SHT31;67835;51.968;5.646;2023-09-19T10:03:47;26.3;42.1
78541;SHT31;67835;51.968;5.646;2023-09-19T10:06:19;26.4;41.6
78541;SHT31;67835;51.968;5.646;2023-09-19T10:09:02;26.5;41.4
78541;SHT31;67835;51.968;5.646;2023-09-19T10:11:44;26.6;41.1
78541;SHT31;67835;51.968;5.646;2023-09-19T10:14:15;26.6;41.2
78541;SHT31;67835;51.968;5.646;2023-09-19T10:16:48;26.8;40.0
78541;SHT31;67835;51.968;5.646;2023-09-19T10:19:22;26.9;41.0
78541;SHT31;67835;51.968;5.646;2023-09-19T10:21:54;27.0;40.3
78541;SHT31;67835;51.968;5.646;2023-09-19T10:24:26;27.1;40.2
78541;SHT31;67835;51.968;5.646;2023-09-19T10:26:59;27.2;40.6
78541;SHT31;67835;51.968;5.646;2023-09-19T10:29:32;27.3;39.8
78541;SHT31;67835;51.968;5.646;2023-09-19T10:32:03;27.3;39.7
78541;SHT31;67835;51.968;5.646;2023-09-19T10:34:36;27.3;38.5
78541;SHT31;67835;51.968;5.646;2023-09-19T10:37:11;27.3;38.9
78541;SHT31;67835;51.968;5.646;2023-09-19T10:39:46;27.3;40.0
78541;SHT31;67835;51.968;5.646;2023-09-19T10:42:19;27.3;39.0
78541;SHT31;67835;51.968;5.646;2023-09-19T10:44:52;27.2;39.5
78541;SHT31;67835;51.968;5.646;2023-09-19T10:47:21;27.0;39.6
78541;SHT31;67835;51.968;5.646;2023-09-19T10:49:50;26.8;40.3
78541;SHT31;67835;51.968;5.646;2023-09-19T10:52:24;26.7;40.3
78541;SHT31;67835;51.968;5.646;2023-09-19T10:54:57;26.7;40.8
78541;SHT31;67835;51.968;5.646;2023-09-19T10:57:27;26.6;40.3
78541;SHT31;67835;51.968;5.646;2023-09-19T11:00:03;26.6;41.0
78541;SHT31;67835;51.968;5.646;2023-09-19T11:02:41;26.6;40.6
78541;SHT31;67835;51.968;5.646;2023-09-19T11:05:15;26.7;40.4
78541;SHT31;67835;51.968;5.646;2023-09-19T11:07:59;26.8;40.5
78541;SHT31;67835;51.968;5.646;2023-09-19T11:10:46;27.0;40.5
78541;SHT31;67835;51.968;5.646;2023-09-19T11:13:26;27.1;40.2
78541;SHT31;67835;51.968;5.646;2023-09-19T11:16:19;27.2;39.0
78541;SHT31;67835;51.968;5.646;2023-09-19T11:18:53;27.2;39.0
78541;SHT31;67835;51.968;5.646;2023-09-19T11:21:58;27.1;39.2
78541;SHT31;67835;51.968;5.646;2023-09-19T11:24:31;27.1;39.1
78541;SHT31;67835;51.968;5.646;2023-09-19T11:27:16;26.9;38.9
78541;SHT31;67835;51.968;5.646;2023-09-19T11:29:46;26.8;40.3
78541;SHT31;67835;51.968;5.646;2023-09-19T11:32:16;26.6;40.5
78541;SHT31;67835;51.968;5.646;2023-09-19T11:34:50;26.4;41.2
78541;SHT31;67835;51.968;5.646;2023-09-19T11:41:48;26.3;41.5
78541;SHT31;67835;51.968;5.646;2023-09-19T11:44:35;26.3;40.4
78541;SHT31;67835;51.968;5.646;2023-09-19T11:47:05;26.5;39.5
78541;SHT31;67835;51.968;5.646;2023-09-19T11:49:42;26.6;40.1
78541;SHT31;67835;51.968;5.646;2023-09-19T11:52:23;26.7;39.8
78541;SHT31;67835;51.968;5.646;2023-09-19T11:54:57;26.7;39.9
78541;SHT31;67835;51.968;5.646;2023-09-19T11:57:28;26.7;40.2
78541;SHT31;67835;51.968;5.646;2023-09-19T11:59:58;26.8;40.2
78541;SHT31;67835;51.968;5.646;2023-09-19T12:02:39;26.8;40.2
78541;SHT31;67835;51.968;5.646;2023-09-19T12:05:10;26.7;40.4
78541;SHT31;67835;51.968;5.646;2023-09-19T12:07:45;26.7;40.3
78541;SHT31;67835;51.968;5.646;2023-09-19T12:10:15;26.8;40.1
78541;SHT31;67835;51.968;5.646;2023-09-19T12:12:49;26.8;39.5
78541;SHT31;67835;51.968;5.646;2023-09-19T12:15:26;26.8;39.8
78541;SHT31;67835;51.968;5.646;2023-09-19T12:18:00;26.8;40.1
78541;SHT31;67835;51.968;5.646;2023-09-19T12:20:44;26.8;39.7
78541;SHT31;67835;51.968;5.646;2023-09-19T12:23:15;26.7;38.8
78541;SHT31;67835;51.968;5.646;2023-09-19T12:25:44;26.5;39.1
78541;SHT31;67835;51.968;5.646;2023-09-19T12:28:15;26.2;39.8
78541;SHT31;67835;51.968;5.646;2023-09-19T12:30:44;25.9;40.5
78541;SHT31;67835;51.968;5.646;2023-09-19T12:33:18;25.6;41.1
78541;SHT31;67835;51.968;5.646;2023-09-19T12:35:52;25.3;41.2
78541;SHT31;67835;51.968;5.646;2023-09-19T12:38:26;25.0;41.8
78541;SHT31;67835;51.968;5.646;2023-09-19T12:40:59;24.8;42.6
78541;SHT31;67835;51.968;5.646;2023-09-19T12:43:30;24.5;43.0
78541;SHT31;67835;51.968;5.646;2023-09-19T12:46:02;24.3;44.1
78541;SHT31;67835;51.968;5.646;2023-09-19T12:48:31;24.2;44.3
78541;SHT31;67835;51.968;5.646;2023-09-19T12:51:02;24.0;44.7
78541;SHT31;67835;51.968;5.646;2023-09-19T12:53:33;23.9;45.4
78541;SHT31;67835;51.968;5.646;2023-09-19T12:56:07;23.7;45.7
78541;SHT31;67835;51.968;5.646;2023-09-19T12:58:50;23.6;46.1
78541;SHT31;67835;51.968;5.646;2023-09-19T13:01:21;23.5;46.4
78541;SHT31;67835;51.968;5.646;2023-09-19T13:04:13;23.3;47.2
78541;SHT31;67835;51.968;5.646;2023-09-19T13:06:44;23.2;47.5
78541;SHT31;67835;51.968;5.646;2023-09-19T13:09:16;23.2;47.8
78541;SHT31;67835;51.968;5.646;2023-09-19T13:11:47;23.1;47.8
78541;SHT31;67835;51.968;5.646;2023-09-19T13:14:19;23.0;47.8
78541;SHT31;67835;51.968;5.646;2023-09-19T13:16:57;22.9;48.5
78541;SHT31;67835;51.968;5.646;2023-09-19T13:19:40;22.8;48.3
78541;SHT31;67835;51.968;5.646;2023-09-19T13:22:40;22.8;48.9
78541;SHT31;67835;51.968;5.646;2023-09-19T13:25:14;22.7;48.9
78541;SHT31;67835;51.968;5.646;2023-09-19T13:27:45;22.6;49.2
78541;SHT31;67835;51.968;5.646;2023-09-19T13:30:18;22.5;49.6
78541;SHT31;67835;51.968;5.646;2023-09-19T13:32:48;22.5;49.5
78541;SHT31;67835;51.968;5.646;2023-09-19T13:35:16;22.4;49.9
78541;SHT31;67835;51.968;5.646;2023-09-19T13:37:48;22.4;49.8
78541;SHT31;67835;51.968;5.646;2023-09-19T13:40:19;22.3;50.1
78541;SHT31;67835;51.968;5.646;2023-09-19T13:42:47;22.3;50.5
78541;SHT31;67835;51.968;5.646;2023-09-19T13:45:22;22.2;50.6
78541;SHT31;67835;51.968;5.646;2023-09-19T13:47:56;22.2;50.6
78541;SHT31;67835;51.968;5.646;2023-09-19T13:50:26;22.2;51.0
78541;SHT31;67835;51.968;5.646;2023-09-19T13:52:58;22.2;51.7
78541;SHT31;67835;51.968;5.646;2023-09-19T13:55:27;22.3;51.4
78541;SHT31;67835;51.968;5.646;2023-09-19T13:57:55;22.3;51.4
78541;SHT31;67835;51.968;5.646;2023-09-19T14:00:24;22.3;51.3
78541;SHT31;67835;51.968;5.646;2023-09-19T14:02:53;22.4;51.3
78541;SHT31;67835;51.968;5.646;2023-09-19T14:05:22;22.5;51.2
78541;SHT31;67835;51.968;5.646;2023-09-19T14:07:54;22.5;51.3
78541;SHT31;67835;51.968;5.646;2023-09-19T14:10:23;22.6;50.5
78541;SHT31;67835;51.968;5.646;2023-09-19T14:12:53;22.6;50.2
78541;SHT31;67835;51.968;5.646;2023-09-19T14:15:22;22.7;49.6
78541;SHT31;67835;51.968;5.646;2023-09-19T14:17:59;22.7;49.8
78541;SHT31;67835;51.968;5.646;2023-09-19T14:20:27;22.7;50.5
78541;SHT31;67835;51.968;5.646;2023-09-19T14:22:57;22.7;50.6
78541;SHT31;67835;51.968;5.646;2023-09-19T14:25:27;22.7;49.8
78541;SHT31;67835;51.968;5.646;2023-09-19T14:27:57;22.7;50.5
78541;SHT31;67835;51.968;5.646;2023-09-19T14:30:25;22.7;50.6
78541;SHT31;67835;51.968;5.646;2023-09-19T14:32:54;22.8;50.0
78541;SHT31;67835;51.968;5.646;2023-09-19T14:35:26;22.8;50.0
78541;SHT31;67835;51.968;5.646;2023-09-19T14:37:54;22.8;49.5
78541;SHT31;67835;51.968;5.646;2023-09-19T14:40:23;22.7;49.9
78541;SHT31;67835;51.968;5.646;2023-09-19T14:42:54;22.7;49.8
78541;SHT31;67835;51.968;5.646;2023-09-19T14:45:22;22.7;49.6
78541;SHT31;67835;51.968;5.646;2023-09-19T14:47:52;22.6;50.0
78541;SHT31;67835;51.968;5.646;2023-09-19T14:50:22;22.6;49.9
78541;SHT31;67835;51.968;5.646;2023-09-19T14:52:51;22.5;50.0
78541;SHT31;67835;51.968;5.646;2023-09-19T14:55:20;22.5;50.3
78541;SHT31;67835;51.968;5.646;2023-09-19T14:57:50;22.4;50.5
78541;SHT31;67835;51.968;5.646;2023-09-19T15:00:20;22.4;50.8
78541;SHT31;67835;51.968;5.646;2023-09-19T15:02:50;22.3;50.8
78541;SHT31;67835;51.968;5.646;2023-09-19T15:05:19;22.3;50.9
78541;SHT31;67835;51.968;5.646;2023-09-19T15:07:47;22.3;51.3
78541;SHT31;67835;51.968;5.646;2023-09-19T15:10:16;22.2;51.5
78541;SHT31;67835;51.968;5.646;2023-09-19T15:12:44;22.2;51.7
78541;SHT31;67835;51.968;5.646;2023-09-19T15:15:14;22.2;51.9
78541;SHT31;67835;51.968;5.646;2023-09-19T15:17:43;22.1;52.3
78541;SHT31;67835;51.968;5.646;2023-09-19T15:20:15;22.1;52.2
78541;SHT31;67835;51.968;5.646;2023-09-19T15:22:44;22.1;52.1
78541;SHT31;67835;51.968;5.646;2023-09-19T15:25:15;22.1;52.2
78541;SHT31;67835;51.968;5.646;2023-09-19T15:27:43;22.0;51.9
78541;SHT31;67835;51.968;5.646;2023-09-19T15:30:15;22.0;51.9
78541;SHT31;67835;51.968;5.646;2023-09-19T15:32:44;22.0;52.1
78541;SHT31;67835;51.968;5.646;2023-09-19T15:35:15;22.0;52.5
78541;SHT31;67835;51.968;5.646;2023-09-19T15:37:44;22.0;52.2
78541;SHT31;67835;51.968;5.646;2023-09-19T15:40:15;22.0;52.4
78541;SHT31;67835;51.968;5.646;2023-09-19T15:42:43;21.9;52.5
78541;SHT31;67835;51.968;5.646;2023-09-19T15:45:12;21.9;52.5
78541;SHT31;67835;51.968;5.646;2023-09-19T15:47:42;21.9;52.5
78541;SHT31;67835;51.968;5.646;2023-09-19T15:50:11;21.8;52.2
78541;SHT31;67835;51.968;5.646;2023-09-19T15:52:41;21.8;52.3
78541;SHT31;67835;51.968;5.646;2023-09-19T15:55:10;21.8;52.9
78541;SHT31;67835;51.968;5.646;2023-09-19T15:57:39;21.8;52.5
78541;SHT31;67835;51.968;5.646;2023-09-19T16:00:08;21.7;53.1
78541;SHT31;67835;51.968;5.646;2023-09-19T16:02:40;21.7;53.0
78541;SHT31;67835;51.968;5.646;2023-09-19T16:05:09;21.7;53.4
78541;SHT31;67835;51.968;5.646;2023-09-19T16:07:38;21.6;53.9
78541;SHT31;67835;51.968;5.646;2023-09-19T16:10:08;21.6;53.7
78541;SHT31;67835;51.968;5.646;2023-09-19T16:12:36;21.6;54.4
78541;SHT31;67835;51.968;5.646;2023-09-19T16:15:07;21.6;54.0
78541;SHT31;67835;51.968;5.646;2023-09-19T16:17:37;21.5;54.2
78541;SHT31;67835;51.968;5.646;2023-09-19T16:20:07;21.5;54.8
78541;SHT31;67835;51.968;5.646;2023-09-19T16:22:38;21.5;55.2
78541;SHT31;67835;51.968;5.646;2023-09-19T16:25:08;21.5;54.5
78541;SHT31;67835;51.968;5.646;2023-09-19T16:27:39;21.4;54.5
78541;SHT31;67835;51.968;5.646;2023-09-19T16:30:12;21.4;54.4
78541;SHT31;67835;51.968;5.646;2023-09-19T16:32:42;21.3;54.7
78541;SHT31;67835;51.968;5.646;2023-09-19T16:35:11;21.3;54.6